createdAt,value
2018-10-03T00:01:28.277Z,44.30
2018-10-03T00:03:55.393Z,44.30
2018-10-03T00:06:22.509Z,44.40
2018-10-03T00:08:49.584Z,44.40
2018-10-03T00:11:16.661Z,44.40
2018-10-03T00:13:43.742Z,44.40
2018-10-03T00:16:10.824Z,44.40
2018-10-03T00:18:37.905Z,44.50
2018-10-03T00:21:05.461Z,44.50
2018-10-03T00:23:32.539Z,44.50
2018-10-03T00:25:59.803Z,44.90
2018-10-03T00:28:27.348Z,44.50
2018-10-03T00:30:54.449Z,44.60
2018-10-03T00:33:21.533Z,44.50
2018-10-03T00:35:48.846Z,44.60
2018-10-03T00:38:16.149Z,44.50
2018-10-03T00:40:43.259Z,44.50
2018-10-03T00:43:10.361Z,44.60
2018-10-03T00:45:37.654Z,44.60
2018-10-03T00:48:05.430Z,44.60
2018-10-03T00:50:32.509Z,44.60
2018-10-03T00:52:59.579Z,44.60
2018-10-03T00:55:26.637Z,44.90
2018-10-03T00:57:53.705Z,44.60
2018-10-03T01:00:20.773Z,44.60
2018-10-03T01:02:47.878Z,44.60
2018-10-03T01:05:15.369Z,44.60
2018-10-03T01:07:42.442Z,44.60
2018-10-03T01:10:09.509Z,44.60
2018-10-03T01:12:36.590Z,44.60
2018-10-03T01:15:03.706Z,44.60
2018-10-03T01:17:30.782Z,44.60
2018-10-03T01:19:57.860Z,44.80
2018-10-03T01:22:25.074Z,44.60
2018-10-03T01:24:52.146Z,44.60
2018-10-03T01:27:19.220Z,44.60
2018-10-03T01:29:46.294Z,44.60
2018-10-03T01:32:13.358Z,44.60
2018-10-03T01:34:40.432Z,44.60
2018-10-03T01:37:07.529Z,44.60
2018-10-03T01:39:34.594Z,44.60
2018-10-03T01:42:01.674Z,44.60
2018-10-03T01:44:28.801Z,44.50
2018-10-03T01:46:55.893Z,44.60
2018-10-03T01:49:22.969Z,44.50
2018-10-03T01:51:50.046Z,44.50
2018-10-03T01:54:17.117Z,44.50
2018-10-03T01:56:44.197Z,44.50
2018-10-03T01:59:11.285Z,44.70
2018-10-03T02:01:38.426Z,44.70
2018-10-03T02:04:05.506Z,44.80
2018-10-03T02:06:32.866Z,44.90
2018-10-03T02:08:59.961Z,45.00
2018-10-03T02:11:27.036Z,45.30
2018-10-03T02:13:54.109Z,45.10
2018-10-03T02:16:21.571Z,45.20
2018-10-03T02:18:48.647Z,45.20
2018-10-03T02:21:15.729Z,45.20
2018-10-03T02:23:42.825Z,45.20
2018-10-03T02:26:09.904Z,45.20
2018-10-03T02:28:36.983Z,45.30
2018-10-03T02:31:04.080Z,45.30
2018-10-03T02:33:31.161Z,45.30
2018-10-03T02:35:58.225Z,45.30
2018-10-03T02:38:25.682Z,45.30
2018-10-03T02:40:52.761Z,45.70
2018-10-03T02:43:19.949Z,45.30
2018-10-03T02:45:47.032Z,45.30
2018-10-03T02:48:14.105Z,45.30
2018-10-03T02:50:41.189Z,45.30
2018-10-03T02:53:08.285Z,45.30
2018-10-03T02:55:35.393Z,45.30
2018-10-03T02:58:02.485Z,45.30
2018-10-03T03:00:29.553Z,45.20
2018-10-03T03:02:56.621Z,45.20
2018-10-03T03:05:23.711Z,45.20
2018-10-03T03:07:51.074Z,45.20
2018-10-03T03:10:18.153Z,45.20
2018-10-03T03:12:45.243Z,45.20
2018-10-03T03:15:12.392Z,45.20
2018-10-03T03:17:39.478Z,45.20
2018-10-03T03:20:06.566Z,45.20
2018-10-03T03:22:33.654Z,45.20
2018-10-03T03:25:00.749Z,45.10
2018-10-03T03:27:27.829Z,45.20
2018-10-03T03:29:55.213Z,45.20
2018-10-03T03:32:22.294Z,45.10
2018-10-03T03:34:49.369Z,44.80
2018-10-03T03:37:16.457Z,45.20
2018-10-03T03:39:43.533Z,45.10
2018-10-03T03:42:10.609Z,45.10
2018-10-03T03:44:37.697Z,45.10
2018-10-03T03:47:05.009Z,45.20
2018-10-03T03:49:32.100Z,45.20
2018-10-03T03:51:59.201Z,45.20
2018-10-03T03:54:26.284Z,45.10
2018-10-03T03:56:53.370Z,45.50
2018-10-03T03:59:20.469Z,45.20
2018-10-03T04:01:47.562Z,45.10
2018-10-03T04:04:14.650Z,45.10
2018-10-03T04:06:41.737Z,45.10
2018-10-03T04:09:09.110Z,45.10
2018-10-03T04:11:36.193Z,45.10
2018-10-03T04:14:03.305Z,45.10
2018-10-03T04:16:30.624Z,45.10
2018-10-03T04:18:57.713Z,45.10
2018-10-03T04:21:30.193Z,45.10
2018-10-03T04:23:57.266Z,45.10
2018-10-03T04:26:24.361Z,45.00
2018-10-03T04:28:51.545Z,45.10
2018-10-03T04:31:18.633Z,45.10
2018-10-03T04:33:45.701Z,45.10
2018-10-03T04:36:12.794Z,45.10
2018-10-03T04:38:39.876Z,45.10
2018-10-03T04:41:06.952Z,45.10
2018-10-03T04:43:34.386Z,45.20
2018-10-03T04:46:01.605Z,45.10
2018-10-03T04:48:28.668Z,45.10
2018-10-03T04:50:55.921Z,45.10
2018-10-03T04:53:22.993Z,45.10
2018-10-03T04:55:50.087Z,45.10
2018-10-03T04:58:17.166Z,45.10
2018-10-03T05:00:44.243Z,45.10
2018-10-03T05:03:11.425Z,45.10
2018-10-03T05:05:38.493Z,45.10
2018-10-03T05:08:05.562Z,45.10
2018-10-03T05:10:32.658Z,45.10
2018-10-03T05:12:59.717Z,45.10
2018-10-03T05:15:26.793Z,45.20
2018-10-03T05:17:53.866Z,45.10
2018-10-03T05:20:20.953Z,44.90
2018-10-03T05:22:48.020Z,45.10
2018-10-03T05:25:15.090Z,45.10
2018-10-03T05:27:42.176Z,45.10
2018-10-03T05:30:09.625Z,45.10
2018-10-03T05:32:36.877Z,45.10
2018-10-03T05:35:04.353Z,45.10
2018-10-03T05:37:31.809Z,45.40
2018-10-03T05:39:58.873Z,45.00
2018-10-03T05:42:25.942Z,44.90
2018-10-03T05:44:53.012Z,44.80
2018-10-03T05:47:20.103Z,44.60
2018-10-03T05:49:47.174Z,44.50
2018-10-03T05:52:14.537Z,44.40
2018-10-03T05:54:41.678Z,44.40
2018-10-03T05:57:08.697Z,44.10
2018-10-03T05:59:36.037Z,44.00
2018-10-03T06:02:03.149Z,43.90
2018-10-03T06:04:30.222Z,43.80
2018-10-03T06:06:57.314Z,43.70
2018-10-03T06:09:24.363Z,43.60
2018-10-03T06:11:51.455Z,43.40
2018-10-03T06:14:18.541Z,43.30
2018-10-03T06:16:45.625Z,43.20
2018-10-03T06:19:12.709Z,43.10
2018-10-03T06:21:39.820Z,43.00
2018-10-03T06:24:06.902Z,43.00
2018-10-03T06:26:34.003Z,42.90
2018-10-03T06:29:01.125Z,42.80
2018-10-03T06:31:28.212Z,42.80
2018-10-03T06:36:32.357Z,42.80
2018-10-03T06:38:59.505Z,42.70
2018-10-03T06:41:26.592Z,42.60
2018-10-03T06:43:53.687Z,42.60
2018-10-03T06:46:20.789Z,42.60
2018-10-03T06:48:47.871Z,42.60
2018-10-03T06:51:14.953Z,42.50
2018-10-03T06:53:42.026Z,42.50
2018-10-03T06:56:09.101Z,42.60
2018-10-03T06:58:36.177Z,42.50
2018-10-03T07:01:03.271Z,42.40
2018-10-03T07:03:30.341Z,42.50
2018-10-03T07:05:57.808Z,42.50
2018-10-03T07:08:24.881Z,42.80
2018-10-03T07:10:51.941Z,42.40
2018-10-03T07:13:19.161Z,42.40
2018-10-03T07:15:46.226Z,42.40
2018-10-03T07:18:13.321Z,42.50
2018-10-03T07:20:40.397Z,42.40
2018-10-03T07:23:07.484Z,42.40
2018-10-03T07:25:34.555Z,42.30
2018-10-03T07:28:01.634Z,42.30
2018-10-03T07:30:28.714Z,42.30
2018-10-03T07:32:56.101Z,42.30
2018-10-03T07:35:23.185Z,42.30
2018-10-03T07:37:50.257Z,42.30
2018-10-03T07:40:17.344Z,42.30
2018-10-03T07:42:44.417Z,42.20
2018-10-03T07:45:11.535Z,42.20
2018-10-03T07:47:38.613Z,42.30
2018-10-03T07:50:06.091Z,42.20
2018-10-03T07:52:33.167Z,42.20
2018-10-03T07:55:00.250Z,42.10
2018-10-03T07:57:27.325Z,42.10
2018-10-03T07:59:54.394Z,42.10
2018-10-03T08:02:21.480Z,42.00
2018-10-03T08:04:48.558Z,42.00
2018-10-03T08:07:16.076Z,41.90
2018-10-03T08:09:43.181Z,41.90
2018-10-03T08:12:10.251Z,41.80
2018-10-03T08:14:37.338Z,41.80
2018-10-03T08:17:04.405Z,41.70
2018-10-03T08:19:31.480Z,41.70
2018-10-03T08:21:58.549Z,41.50
2018-10-03T08:24:25.638Z,41.50
2018-10-03T08:26:52.702Z,41.50
2018-10-03T08:29:20.007Z,41.40
2018-10-03T08:31:47.081Z,41.40
2018-10-03T08:34:14.149Z,41.40
2018-10-03T08:36:41.267Z,41.30
2018-10-03T08:39:09.569Z,41.30
2018-10-03T08:41:36.641Z,41.20
2018-10-03T08:44:03.717Z,41.10
2018-10-03T08:46:30.785Z,41.10
2018-10-03T08:48:57.857Z,41.00
2018-10-03T08:51:25.119Z,41.00
2018-10-03T08:53:52.185Z,41.00
2018-10-03T08:56:19.261Z,41.00
2018-10-03T08:58:46.366Z,41.00
2018-10-03T09:01:13.438Z,41.00
2018-10-03T09:03:40.502Z,41.00
2018-10-03T09:06:07.581Z,41.00
2018-10-03T09:08:34.676Z,41.00
2018-10-03T09:11:01.753Z,41.00
2018-10-03T09:13:28.834Z,41.00
2018-10-03T09:15:55.925Z,40.90
2018-10-03T09:18:23.001Z,40.70
2018-10-03T09:20:50.101Z,40.60
2018-10-03T09:23:17.217Z,40.50
2018-10-03T09:25:44.283Z,40.60
2018-10-03T09:28:11.417Z,40.50
2018-10-03T09:30:38.481Z,40.60
2018-10-03T09:33:05.705Z,40.60
2018-10-03T09:35:32.782Z,40.60
2018-10-03T09:37:59.857Z,40.50
2018-10-03T09:40:26.925Z,40.40
2018-10-03T09:42:53.991Z,40.50
2018-10-03T09:45:21.069Z,40.50
2018-10-03T09:47:48.286Z,40.50
2018-10-03T09:50:15.369Z,40.70
2018-10-03T09:52:42.593Z,40.40
2018-10-03T09:55:09.665Z,40.30
2018-10-03T09:57:36.733Z,40.20
2018-10-03T10:00:04.692Z,40.20
2018-10-03T10:02:31.776Z,40.20
2018-10-03T10:04:58.853Z,40.20
2018-10-03T10:07:25.945Z,40.20
2018-10-03T10:09:53.025Z,40.60
2018-10-03T10:12:20.114Z,40.30
2018-10-03T10:14:47.181Z,40.20
2018-10-03T10:17:14.361Z,40.20
2018-10-03T10:19:41.497Z,40.20
2018-10-03T10:22:08.755Z,40.20
2018-10-03T10:24:35.870Z,40.20
2018-10-03T10:27:03.078Z,40.30
2018-10-03T10:29:30.153Z,40.70
2018-10-03T10:31:57.431Z,40.50
2018-10-03T10:34:24.570Z,40.40
2018-10-03T10:36:51.650Z,40.30
2018-10-03T10:39:18.731Z,40.20
2018-10-03T10:41:45.825Z,40.10
2018-10-03T10:44:13.109Z,40.20
2018-10-03T10:46:40.327Z,40.20
2018-10-03T10:49:07.372Z,40.20
2018-10-03T10:51:34.502Z,40.10
2018-10-03T10:54:01.607Z,40.20
2018-10-03T10:56:28.697Z,40.20
2018-10-03T10:58:55.793Z,40.10
2018-10-03T11:01:22.863Z,40.30
2018-10-03T11:03:49.958Z,40.50
2018-10-03T11:06:17.143Z,40.40
2018-10-03T11:08:44.214Z,40.30
2018-10-03T11:11:11.325Z,40.20
2018-10-03T11:13:38.407Z,40.10
2018-10-03T11:16:05.594Z,39.60
2018-10-03T11:18:32.775Z,39.30
2018-10-03T11:20:59.913Z,38.60
2018-10-03T11:23:27.113Z,38.40
2018-10-03T11:25:54.317Z,38.30
2018-10-03T11:28:21.389Z,38.30
2018-10-03T11:30:48.497Z,37.90
2018-10-03T11:33:15.589Z,37.50
2018-10-03T11:35:42.663Z,37.30
2018-10-03T11:38:09.804Z,37.40
2018-10-03T11:40:36.837Z,37.80
2018-10-03T11:43:03.946Z,37.60
2018-10-03T11:45:31.026Z,37.60
2018-10-03T11:47:58.094Z,37.70
2018-10-03T11:50:25.202Z,37.70
2018-10-03T11:52:52.259Z,37.80
2018-10-03T11:55:19.341Z,37.80
2018-10-03T11:57:46.422Z,37.80
2018-10-03T12:00:13.502Z,37.80
2018-10-03T12:02:40.583Z,37.80
2018-10-03T12:05:07.658Z,37.80
2018-10-03T12:07:34.755Z,37.70
2018-10-03T12:10:01.970Z,37.70
2018-10-03T12:12:29.039Z,37.70
2018-10-03T12:14:56.121Z,37.70
2018-10-03T12:17:23.229Z,37.70
2018-10-03T12:19:50.308Z,38.00
2018-10-03T12:22:17.397Z,37.80
2018-10-03T12:24:44.473Z,37.80
2018-10-03T12:27:11.573Z,37.70
2018-10-03T12:29:38.818Z,37.70
2018-10-03T12:32:05.942Z,37.50
2018-10-03T12:34:33.025Z,37.60
2018-10-03T12:37:00.221Z,37.60
2018-10-03T12:39:27.323Z,37.70
2018-10-03T12:41:54.432Z,37.70
2018-10-03T12:44:21.795Z,37.70
2018-10-03T12:46:48.869Z,37.70
2018-10-03T12:49:15.943Z,37.80
2018-10-03T12:51:43.042Z,37.70
2018-10-03T12:54:10.619Z,37.70
2018-10-03T12:56:37.844Z,37.60
2018-10-03T12:59:04.901Z,37.60
2018-10-03T13:01:31.994Z,37.60
2018-10-03T13:03:59.082Z,37.50
2018-10-03T13:06:26.181Z,37.50
2018-10-03T13:08:53.287Z,37.50
2018-10-03T13:11:20.403Z,37.50
2018-10-03T13:13:47.478Z,37.50
2018-10-03T13:16:14.601Z,37.60
2018-10-03T13:18:41.714Z,38.00
2018-10-03T13:21:08.981Z,37.80
2018-10-03T13:23:36.053Z,37.60
2018-10-03T13:26:03.305Z,37.60
2018-10-03T13:28:30.398Z,37.50
2018-10-03T13:30:57.526Z,37.40
2018-10-03T13:33:24.620Z,37.40
2018-10-03T13:35:51.914Z,37.40
2018-10-03T13:38:19.005Z,37.40
2018-10-03T13:40:46.174Z,37.50
2018-10-03T13:43:13.205Z,37.50
2018-10-03T13:45:40.620Z,37.50
2018-10-03T13:48:07.715Z,37.50
2018-10-03T13:50:34.813Z,37.50
2018-10-03T13:53:02.979Z,37.50
2018-10-03T13:55:30.138Z,37.50
2018-10-03T13:57:57.242Z,37.50
2018-10-03T14:00:24.337Z,37.50
2018-10-03T14:02:51.457Z,37.50
2018-10-03T14:05:18.543Z,37.50
2018-10-03T14:07:45.627Z,37.50
2018-10-03T14:10:13.053Z,37.50
2018-10-03T14:12:40.417Z,37.40
2018-10-03T14:15:07.494Z,37.40
2018-10-03T14:17:34.574Z,37.30
2018-10-03T14:20:01.711Z,37.10
2018-10-03T14:22:28.809Z,37.10
2018-10-03T14:24:55.885Z,37.20
2018-10-03T14:27:22.953Z,37.20
2018-10-03T14:29:50.094Z,37.20
2018-10-03T14:32:17.180Z,37.20
2018-10-03T14:34:44.273Z,37.30
2018-10-03T14:37:11.361Z,37.30
2018-10-03T14:39:38.502Z,37.40
2018-10-03T14:42:05.897Z,37.50
2018-10-03T14:44:32.984Z,37.50
2018-10-03T14:47:00.103Z,37.50
2018-10-03T14:49:27.213Z,37.50
2018-10-03T14:51:54.297Z,37.50
2018-10-03T14:54:21.421Z,37.50
2018-10-03T14:56:48.505Z,37.50
2018-10-03T14:59:16.146Z,37.50
2018-10-03T15:01:43.244Z,37.50
2018-10-03T15:04:10.325Z,37.50
2018-10-03T15:06:37.439Z,37.60
2018-10-03T15:09:06.429Z,37.60
2018-10-03T15:11:33.500Z,37.60
2018-10-03T15:14:00.633Z,37.70
2018-10-03T15:16:27.718Z,37.60
2018-10-03T15:18:54.812Z,37.70
2018-10-03T15:21:21.910Z,37.80
2018-10-03T15:23:49.001Z,37.90
2018-10-03T15:26:16.109Z,38.00
2018-10-03T15:28:47.257Z,37.90
2018-10-03T15:31:14.334Z,37.70
2018-10-03T15:33:41.631Z,37.60
2018-10-03T15:36:08.750Z,37.40
2018-10-03T15:38:35.882Z,37.30
2018-10-03T15:41:02.969Z,37.30
2018-10-03T15:43:30.050Z,37.30
2018-10-03T15:45:57.130Z,37.30
2018-10-03T15:48:24.214Z,37.30
2018-10-03T15:50:51.525Z,37.20
2018-10-03T15:53:18.626Z,37.20
2018-10-03T15:55:45.711Z,37.10
2018-10-03T15:58:13.122Z,37.10
2018-10-03T16:00:40.211Z,37.10
2018-10-03T16:03:07.285Z,37.00
2018-10-03T16:05:34.385Z,36.90
2018-10-03T16:08:01.473Z,36.90
2018-10-03T16:10:28.618Z,36.70
2018-10-03T16:12:55.711Z,36.50
2018-10-03T16:15:22.801Z,36.50
2018-10-03T16:17:50.018Z,36.30
2018-10-03T16:20:17.170Z,36.20
2018-10-03T16:22:44.242Z,36.20
2018-10-03T16:25:11.800Z,36.30
2018-10-03T16:27:38.882Z,36.30
2018-10-03T16:30:05.991Z,36.30
2018-10-03T16:32:33.146Z,36.40
2018-10-03T16:35:00.191Z,36.30
2018-10-03T16:37:27.277Z,36.30
2018-10-03T16:39:54.665Z,36.40
2018-10-03T16:42:22.268Z,36.40
2018-10-03T16:44:49.382Z,36.50
2018-10-03T16:47:16.477Z,36.60
2018-10-03T16:49:43.703Z,36.80
2018-10-03T16:52:10.848Z,36.80
2018-10-03T16:54:37.938Z,36.90
2018-10-03T16:57:05.011Z,37.10
2018-10-03T16:59:32.109Z,37.10
2018-10-03T17:01:59.220Z,37.20
2018-10-03T17:04:26.322Z,37.30
2018-10-03T17:06:53.498Z,37.60
2018-10-03T17:09:20.573Z,37.70
2018-10-03T17:11:47.737Z,37.90
2018-10-03T17:14:21.263Z,37.90
2018-10-03T17:16:48.532Z,38.00
2018-10-03T17:19:16.586Z,38.10
2018-10-03T17:21:43.829Z,38.10
2018-10-03T17:24:10.924Z,38.10
2018-10-03T17:26:38.039Z,38.20
2018-10-03T17:29:05.352Z,38.30
2018-10-03T17:31:34.545Z,38.50
2018-10-03T17:34:01.645Z,38.70
2018-10-03T17:36:29.131Z,38.70
2018-10-03T17:38:56.549Z,38.80
2018-10-03T17:41:23.673Z,38.90
2018-10-03T17:43:50.894Z,39.00
2018-10-03T17:46:17.997Z,39.10
2018-10-03T17:48:45.092Z,39.20
2018-10-03T17:51:12.177Z,39.20
2018-10-03T17:53:39.386Z,39.30
2018-10-03T17:56:06.502Z,39.30
2018-10-03T17:58:33.976Z,39.30
2018-10-03T18:01:01.117Z,39.30
2018-10-03T18:03:28.388Z,39.40
2018-10-03T18:05:55.488Z,39.30
2018-10-03T18:08:22.754Z,39.30
2018-10-03T18:10:50.116Z,39.30
2018-10-03T18:13:17.294Z,39.20
2018-10-03T18:15:44.658Z,39.20
2018-10-03T18:18:12.026Z,39.20
2018-10-03T18:20:39.318Z,39.10
2018-10-03T18:23:06.659Z,39.10
2018-10-03T18:25:33.793Z,39.10
2018-10-03T18:28:00.999Z,39.10
2018-10-03T18:30:28.153Z,39.10
2018-10-03T18:32:55.244Z,39.00
2018-10-03T18:35:22.322Z,39.00
2018-10-03T18:37:49.767Z,39.00
2018-10-03T18:40:16.840Z,39.00
2018-10-03T18:42:43.936Z,39.00
2018-10-03T18:45:11.077Z,39.00
2018-10-03T18:47:38.100Z,39.00
2018-10-03T18:50:05.718Z,39.00
2018-10-03T18:52:32.789Z,38.70
2018-10-03T18:54:59.932Z,39.00
2018-10-03T18:57:27.067Z,39.00
2018-10-03T18:59:54.186Z,39.00
2018-10-03T19:02:21.310Z,39.10
2018-10-03T19:04:48.409Z,39.00
2018-10-03T19:07:16.246Z,39.00
2018-10-03T19:09:43.344Z,39.00
2018-10-03T19:12:10.490Z,39.00
2018-10-03T19:14:37.553Z,39.00
2018-10-03T19:17:04.848Z,39.00
2018-10-03T19:19:31.933Z,39.00
2018-10-03T19:21:59.047Z,39.00
2018-10-03T19:24:26.141Z,39.00
2018-10-03T19:26:53.242Z,39.10
2018-10-03T19:29:20.328Z,39.10
2018-10-03T19:31:47.699Z,39.20
2018-10-03T19:34:14.790Z,39.30
2018-10-03T19:36:41.882Z,39.40
2018-10-03T19:39:09.170Z,39.60
2018-10-03T19:41:36.830Z,39.70
2018-10-03T19:44:03.965Z,39.90
2018-10-03T19:46:31.053Z,40.20
2018-10-03T19:48:58.137Z,40.50
2018-10-03T19:51:25.252Z,40.70
2018-10-03T19:53:52.333Z,40.90
2018-10-03T19:56:20.788Z,41.00
2018-10-03T19:58:47.894Z,41.60
2018-10-03T20:01:14.985Z,41.50
2018-10-03T20:03:42.058Z,41.90
2018-10-03T20:06:09.150Z,42.10
2018-10-03T20:08:36.281Z,42.40
2018-10-03T20:11:03.374Z,42.60
2018-10-03T20:13:30.467Z,42.80
2018-10-03T20:15:57.554Z,43.40
2018-10-03T20:18:24.642Z,43.40
2018-10-03T20:20:52.222Z,43.60
2018-10-03T20:23:19.517Z,43.80
2018-10-03T20:25:46.610Z,43.90
2018-10-03T20:28:13.685Z,44.00
2018-10-03T20:30:40.769Z,44.00
2018-10-03T20:33:07.990Z,44.20
2018-10-03T20:35:35.070Z,44.40
2018-10-03T20:38:02.198Z,44.60
2018-10-03T20:40:29.293Z,44.70
2018-10-03T20:42:56.365Z,44.80
2018-10-03T20:45:23.445Z,44.90
2018-10-03T20:47:50.523Z,45.30
2018-10-03T20:50:17.598Z,45.10
2018-10-03T20:52:44.681Z,45.20
2018-10-03T20:55:11.762Z,45.30
2018-10-03T20:57:38.825Z,45.40
2018-10-03T21:00:05.965Z,45.50
2018-10-03T21:02:33.014Z,45.60
2018-10-03T21:05:00.091Z,45.80
2018-10-03T21:07:27.182Z,45.70
2018-10-03T21:09:54.258Z,45.80
2018-10-03T21:12:21.353Z,45.90
2018-10-03T21:14:48.779Z,46.00
2018-10-03T21:17:16.061Z,46.00
2018-10-03T21:19:43.138Z,46.10
2018-10-03T21:22:10.350Z,46.20
2018-10-03T21:24:37.442Z,46.20
2018-10-03T21:27:04.546Z,46.30
2018-10-03T21:29:31.637Z,46.30
2018-10-03T21:31:58.715Z,46.80
2018-10-03T21:34:25.801Z,46.50
2018-10-03T21:36:52.873Z,46.60
2018-10-03T21:39:19.953Z,46.70
2018-10-03T21:41:47.048Z,46.70
2018-10-03T21:44:14.330Z,46.80
2018-10-03T21:46:41.413Z,46.90
2018-10-03T21:49:08.501Z,46.80
2018-10-03T21:51:35.570Z,47.00
2018-10-03T21:54:02.655Z,47.10
2018-10-03T21:56:29.729Z,47.20
2018-10-03T21:58:56.809Z,47.20
2018-10-03T22:01:23.902Z,47.20
2018-10-03T22:03:51.269Z,47.30
2018-10-03T22:06:18.352Z,47.40
2018-10-03T22:08:45.425Z,47.50
2018-10-03T22:11:12.517Z,47.50
2018-10-03T22:13:39.593Z,47.50
2018-10-03T22:16:06.671Z,47.40
2018-10-03T22:18:34.057Z,47.50
2018-10-03T22:21:01.137Z,47.60
2018-10-03T22:23:28.212Z,47.70
2018-10-03T22:25:55.297Z,47.70
2018-10-03T22:28:22.382Z,47.80
2018-10-03T22:30:49.475Z,47.80
2018-10-03T22:33:16.730Z,47.80
2018-10-03T22:35:43.803Z,47.90
2018-10-03T22:38:10.873Z,47.70
2018-10-03T22:40:37.990Z,47.90
2018-10-03T22:43:05.066Z,47.90
2018-10-03T22:45:32.144Z,48.20
2018-10-03T22:47:59.255Z,48.10
2018-10-03T22:50:26.333Z,48.10
2018-10-03T22:52:53.411Z,48.10
2018-10-03T22:55:20.502Z,48.20
2018-10-03T22:57:47.581Z,48.20
2018-10-03T23:00:14.677Z,48.30
2018-10-03T23:02:42.085Z,48.30
2018-10-03T23:05:09.179Z,48.40
2018-10-03T23:07:36.262Z,48.40
2018-10-03T23:10:04.062Z,48.50
2018-10-03T23:12:31.138Z,48.40
2018-10-03T23:14:58.215Z,48.50
2018-10-03T23:17:25.633Z,48.50
2018-10-03T23:19:52.716Z,48.50
2018-10-03T23:22:19.789Z,48.60
2018-10-03T23:24:46.882Z,48.70
2018-10-03T23:27:15.249Z,48.70
2018-10-03T23:29:42.351Z,48.60
2018-10-03T23:32:09.445Z,48.60
2018-10-03T23:34:36.522Z,48.60
2018-10-03T23:37:03.764Z,48.60
2018-10-03T23:39:31.157Z,48.50
2018-10-03T23:41:58.283Z,48.50
2018-10-03T23:44:25.345Z,48.50
2018-10-03T23:46:52.421Z,48.40
2018-10-03T23:49:19.546Z,48.30
2018-10-03T23:51:46.621Z,48.50
2018-10-03T23:54:13.885Z,48.20
2018-10-03T23:56:40.961Z,48.20
2018-10-03T23:59:08.035Z,48.10
